Time;durP1;ratioP1;P1;durP2;ratioP2;P2;SDS_P1;SDS_P2;PMS_P1;PMS_P2;Temp;Humidity;BMP_temperature;BMP_pressure;BME280_temperature;BME280_humidity;BME280_pressure;Samples;Min_cycle;Max_cycle;Signal;HPM_P1;HPM_P2
2022/09/16 00:00:23;;;;;;;21.95;20.40;;;17.30;71.60;;;;;;5035472;28;20044;-81
2022/09/16 00:02:51;;;;;;;23.08;21.38;;;17.30;71.60;;;;;;5036337;28;20032;-82
2022/09/16 00:05:17;;;;;;;22.10;20.65;;;17.30;71.50;;;;;;5053340;28;20032;-82
2022/09/16 00:07:43;;;;;;;21.45;19.88;;;17.30;71.30;;;;;;5036381;28;20037;-82
2022/09/16 00:10:10;;;;;;;22.92;21.20;;;17.30;71.20;;;;;;5036596;28;20040;-82
2022/09/16 00:12:36;;;;;;;28.35;26.42;;;17.30;71.50;;;;;;5051916;28;20021;-82
2022/09/16 00:15:03;;;;;;;23.15;21.30;;;17.30;71.40;;;;;;5070785;28;20035;-82
2022/09/16 00:17:29;;;;;;;24.15;22.65;;;17.30;71.30;;;;;;5049931;28;20106;-82
2022/09/16 00:19:56;;;;;;;22.50;20.70;;;17.30;71.40;;;;;;5050852;28;20033;-82
2022/09/16 00:22:23;;;;;;;24.90;23.25;;;17.30;71.20;;;;;;5016712;28;20092;-82
2022/09/16 00:24:49;;;;;;;34.72;32.38;;;17.40;71.20;;;;;;5016623;28;20037;-82
2022/09/16 00:27:15;;;;;;;26.48;24.73;;;17.30;71.50;;;;;;5014659;28;20051;-82
2022/09/16 00:29:41;;;;;;;22.40;20.92;;;17.20;71.80;;;;;;4996307;28;20049;-82
2022/09/16 00:32:07;;;;;;;23.10;20.90;;;17.20;71.80;;;;;;5029353;28;20478;-82
2022/09/16 00:34:33;;;;;;;23.33;21.55;;;17.30;71.50;;;;;;5048364;28;20044;-82
2022/09/16 00:37:02;;;;;;;25.98;24.13;;;17.30;71.30;;;;;;5033027;28;20040;-82
2022/09/16 00:39:28;;;;;;;26.00;24.23;;;17.40;71.10;;;;;;5049074;28;20041;-82
2022/09/16 00:41:55;;;;;;;31.52;29.48;;;17.40;70.70;;;;;;5067882;28;20458;-81
2022/09/16 00:44:52;;;;;;;29.13;27.58;;;17.30;71.50;;;;;;5035651;28;20048;-82
2022/09/16 00:47:36;;;;;;;23.63;22.20;;;17.40;70.40;;;;;;5051688;28;20044;-82
2022/09/16 00:50:22;;;;;;;22.65;21.02;;;17.30;70.60;;;;;;5052549;28;20528;-82
2022/09/16 00:52:49;;;;;;;20.65;19.35;;;17.30;70.40;;;;;;5052419;28;20048;-82
2022/09/16 00:55:19;;;;;;;19.52;18.08;;;17.20;70.60;;;;;;5051723;28;20032;-82
2022/09/16 00:57:45;;;;;;;18.47;17.07;;;17.20;70.60;;;;;;5052511;28;20017;-82
2022/09/16 01:00:12;;;;;;;20.20;18.85;;;17.20;70.80;;;;;;5051895;28;20028;-82
2022/09/16 01:02:40;;;;;;;19.45;17.95;;;17.10;70.70;;;;;;5051427;28;20111;-82
2022/09/16 01:05:11;;;;;;;19.55;18.05;;;17.10;70.80;;;;;;5052572;28;20464;-81
2022/09/16 01:07:41;;;;;;;18.83;17.45;;;17.10;70.80;;;;;;5052790;28;20477;-81
2022/09/16 01:10:07;;;;;;;18.80;17.42;;;17.20;70.80;;;;;;5070476;28;20037;-81
2022/09/16 01:12:33;;;;;;;20.10;18.60;;;17.40;70.80;;;;;;5070267;28;20385;-82
2022/09/16 01:15:00;;;;;;;23.33;21.50;;;17.50;69.70;;;;;;5069758;28;20028;-82
2022/09/16 01:17:27;;;;;;;27.63;25.60;;;17.50;69.20;;;;;;5052107;28;20035;-82
2022/09/16 01:20:30;;;;;;;27.52;25.88;;;17.60;68.90;;;;;;5070207;28;20539;-82
2022/09/16 01:23:22;;;;;;;27.48;25.67;;;17.50;69.00;;;;;;5070467;28;20374;-81
2022/09/16 01:25:57;;;;;;;27.60;25.65;;;17.60;69.10;;;;;;5037771;28;20036;-82
2022/09/16 01:29:16;;;;;;;24.35;22.48;;;17.70;68.30;;;;;;5069535;28;20139;-82
2022/09/16 01:31:59;;;;;;;22.00;20.33;;;17.70;68.60;;;;;;4991207;28;20046;-82
2022/09/16 01:34:49;;;;;;;21.88;20.17;;;17.80;68.50;;;;;;4977798;28;20045;-82
2022/09/16 01:37:46;;;;;;;22.63;20.90;;;17.80;67.70;;;;;;4992362;28;20034;-82
2022/09/16 01:40:39;;;;;;;21.02;19.50;;;17.90;67.40;;;;;;4975990;28;20038;-82
2022/09/16 01:43:10;;;;;;;21.05;19.63;;;17.90;67.50;;;;;;4977447;28;20046;-82
2022/09/16 01:45:38;;;;;;;21.67;20.27;;;18.00;66.60;;;;;;4991507;28;20138;-82
2022/09/16 01:48:28;;;;;;;22.63;20.92;;;18.10;67.90;;;;;;4988205;28;20037;-82
2022/09/16 01:51:20;;;;;;;21.33;19.85;;;18.20;66.80;;;;;;4988294;28;20046;-82
2022/09/16 01:53:48;;;;;;;22.13;20.48;;;18.30;66.70;;;;;;4972271;28;20031;-82
2022/09/16 01:56:17;;;;;;;23.40;21.63;;;18.30;66.60;;;;;;4972518;28;20030;-82
2022/09/16 01:58:51;;;;;;;22.48;20.88;;;18.40;67.40;;;;;;4972043;28;20043;-82
2022/09/16 02:01:24;;;;;;;22.88;21.15;;;18.40;66.10;;;;;;4971819;28;20042;-82
2022/09/16 02:03:54;;;;;;;23.50;22.02;;;18.40;65.80;;;;;;4970288;28;20034;-82
2022/09/16 02:06:21;;;;;;;25.40;23.70;;;18.30;66.30;;;;;;5022714;28;20052;-82
2022/09/16 02:08:56;;;;;;;21.17;19.67;;;18.30;65.80;;;;;;5035492;28;20052;-82
2022/09/16 02:11:23;;;;;;;24.15;22.65;;;18.30;65.60;;;;;;5035446;28;20044;-82
2022/09/16 02:13:59;;;;;;;23.33;21.60;;;18.30;65.40;;;;;;5035033;28;20470;-82
2022/09/16 02:16:30;;;;;;;24.27;22.80;;;18.20;65.50;;;;;;5052537;28;20041;-82
2022/09/16 02:19:01;;;;;;;22.75;21.17;;;18.30;65.40;;;;;;5019237;28;20029;-82
2022/09/16 02:21:27;;;;;;;23.65;21.75;;;18.40;65.30;;;;;;5019844;28;20036;-82
2022/09/16 02:23:56;;;;;;;24.20;22.63;;;18.40;65.40;;;;;;5035292;28;20029;-82
2022/09/16 02:26:28;;;;;;;24.52;22.88;;;18.50;65.40;;;;;;5018772;28;20036;-82
2022/09/16 02:28:54;;;;;;;24.00;22.05;;;18.50;65.30;;;;;;5033650;28;20465;-81
2022/09/16 02:31:27;;;;;;;23.88;22.25;;;18.50;65.40;;;;;;5037315;28;20051;-82
2022/09/16 02:33:56;;;;;;;22.50;21.10;;;18.50;65.30;;;;;;5038924;28;20377;-82
2022/09/16 02:36:23;;;;;;;23.10;21.13;;;18.50;65.40;;;;;;5054934;28;20397;-82
2022/09/16 02:39:01;;;;;;;22.67;20.98;;;18.50;65.50;;;;;;5038431;28;20036;-82
2022/09/16 02:41:27;;;;;;;21.95;20.52;;;18.40;65.50;;;;;;5054062;28;20032;-82
2022/09/16 02:43:53;;;;;;;21.98;19.98;;;18.40;65.50;;;;;;5054574;28;20024;-82
2022/09/16 02:46:39;;;;;;;21.48;19.80;;;18.30;65.50;;;;;;5061164;28;20401;-82
2022/09/16 02:49:13;;;;;;;21.63;20.25;;;18.30;65.90;;;;;;5024614;28;20464;-82
2022/09/16 02:51:51;;;;;;;21.20;19.70;;;18.30;65.90;;;;;;5015166;28;20045;-81
2022/09/16 02:54:49;;;;;;;20.85;18.98;;;18.20;65.80;;;;;;5014831;28;20025;-81
2022/09/16 02:57:15;;;;;;;20.27;18.88;;;18.20;65.70;;;;;;5017474;28;20040;-82
2022/09/16 02:59:42;;;;;;;20.17;18.75;;;18.10;65.80;;;;;;4998793;28;20390;-82
2022/09/16 03:02:08;;;;;;;20.80;18.88;;;18.00;66.30;;;;;;4998077;28;20040;-82
2022/09/16 03:04:35;;;;;;;20.13;18.65;;;17.90;66.00;;;;;;5014241;28;20037;-82
2022/09/16 03:07:03;;;;;;;20.52;19.23;;;17.90;66.20;;;;;;5014584;28;20028;-81
2022/09/16 03:09:29;;;;;;;20.25;18.83;;;17.80;66.10;;;;;;5014207;28;20042;-81
2022/09/16 03:12:04;;;;;;;20.67;19.10;;;17.70;66.20;;;;;;5013387;28;20033;-82
2022/09/16 03:14:49;;;;;;;21.02;19.23;;;17.70;66.40;;;;;;4997698;28;20044;-81
2022/09/16 03:17:18;;;;;;;18.85;17.42;;;17.40;67.10;;;;;;4997630;28;20037;-82
2022/09/16 03:20:15;;;;;;;19.63;18.20;;;17.30;67.20;;;;;;5032088;28;20030;-81
2022/09/16 03:22:44;;;;;;;19.75;18.20;;;17.30;67.80;;;;;;5032098;28;20037;-82
2022/09/16 03:25:14;;;;;;;20.75;19.05;;;17.20;67.50;;;;;;5014011;28;20033;-81
2022/09/16 03:28:18;;;;;;;21.30;19.90;;;17.20;68.00;;;;;;5019434;28;20036;-81
2022/09/16 03:31:02;;;;;;;20.60;19.33;;;17.30;67.60;;;;;;4973431;28;20034;-82
2022/09/16 03:33:45;;;;;;;20.42;18.58;;;17.30;67.40;;;;;;4975552;28;20083;-82
2022/09/16 03:36:13;;;;;;;21.17;19.20;;;17.20;67.40;;;;;;4975130;28;20041;-81
2022/09/16 03:38:39;;;;;;;21.13;19.40;;;17.30;67.50;;;;;;4973545;28;20389;-81
2022/09/16 03:41:05;;;;;;;20.65;19.15;;;17.20;67.40;;;;;;4953970;28;20038;-82
2022/09/16 03:43:31;;;;;;;21.85;20.30;;;17.20;67.50;;;;;;4971326;28;20039;-82
2022/09/16 03:45:57;;;;;;;25.67;24.13;;;17.20;67.40;;;;;;4989324;28;20443;-81
2022/09/16 03:48:24;;;;;;;26.45;24.48;;;17.20;67.50;;;;;;4973202;28;20042;-82
2022/09/16 03:50:50;;;;;;;25.35;23.50;;;17.20;67.10;;;;;;4989599;28;20046;-81
2022/09/16 03:53:16;;;;;;;25.00;23.10;;;17.10;67.40;;;;;;4972125;28;20443;-82
2022/09/16 03:55:42;;;;;;;23.40;21.70;;;17.00;67.70;;;;;;4989784;28;20050;-81
2022/09/16 03:58:08;;;;;;;22.08;20.60;;;16.90;67.80;;;;;;4988615;28;20371;-81
2022/09/16 04:00:34;;;;;;;22.30;20.55;;;16.90;67.80;;;;;;4989088;28;20130;-81
2022/09/16 04:03:00;;;;;;;19.02;17.23;;;17.00;67.60;;;;;;4973172;28;20041;-81
2022/09/16 04:05:27;;;;;;;18.77;17.17;;;17.00;67.40;;;;;;5040601;28;20045;-82
2022/09/16 04:07:53;;;;;;;21.00;19.42;;;17.00;67.60;;;;;;5052921;28;20029;-82
2022/09/16 04:10:19;;;;;;;21.65;19.95;;;17.10;67.60;;;;;;5053092;28;20397;-81
2022/09/16 04:12:45;;;;;;;21.58;19.77;;;17.00;67.70;;;;;;5052820;28;20032;-81
2022/09/16 04:15:11;;;;;;;18.98;17.42;;;17.00;67.90;;;;;;5052723;28;20044;-81
2022/09/16 04:17:37;;;;;;;18.67;16.90;;;17.00;67.90;;;;;;5052839;28;20032;-82
2022/09/16 04:20:04;;;;;;;16.50;15.27;;;17.00;67.90;;;;;;5035980;28;20032;-82
2022/09/16 04:22:30;;;;;;;16.23;14.93;;;17.00;67.90;;;;;;5070590;28;20460;-81
2022/09/16 04:24:57;;;;;;;16.58;15.05;;;17.00;68.10;;;;;;5053081;28;20032;-81
2022/09/16 04:27:23;;;;;;;15.05;13.50;;;17.00;68.20;;;;;;5050235;28;20047;-81
2022/09/16 04:29:49;;;;;;;16.23;14.48;;;16.90;68.30;;;;;;5050898;28;20110;-81
2022/09/16 04:32:15;;;;;;;18.17;16.52;;;16.80;68.60;;;;;;5048947;28;20557;-81
2022/09/16 04:34:42;;;;;;;20.88;19.15;;;16.80;68.70;;;;;;5032294;28;20128;-81
2022/09/16 04:37:08;;;;;;;19.77;18.38;;;16.70;69.00;;;;;;5032762;28;20033;-81
2022/09/16 04:39:34;;;;;;;16.40;14.85;;;16.70;69.00;;;;;;5032965;28;20032;-81
2022/09/16 04:42:00;;;;;;;15.88;14.50;;;16.60;69.30;;;;;;5068423;28;20043;-81
2022/09/16 04:44:28;;;;;;;16.48;14.95;;;16.60;69.10;;;;;;5070490;28;20021;-81
2022/09/16 04:46:55;;;;;;;18.70;17.00;;;16.60;69.00;;;;;;5051887;28;20043;-81
2022/09/16 04:49:21;;;;;;;17.17;15.68;;;16.60;69.30;;;;;;5052399;28;20059;-82
2022/09/16 04:51:47;;;;;;;15.32;13.95;;;16.50;69.30;;;;;;5070112;28;20040;-81
2022/09/16 04:54:13;;;;;;;16.83;15.48;;;16.50;69.60;;;;;;5070649;28;20501;-81
2022/09/16 04:56:39;;;;;;;16.25;14.98;;;16.50;70.40;;;;;;5052807;28;20043;-81
2022/09/16 04:59:05;;;;;;;16.48;15.30;;;16.50;69.70;;;;;;5052342;28;20485;-82
2022/09/16 05:01:33;;;;;;;16.10;14.90;;;16.50;69.90;;;;;;5052147;28;20040;-81
2022/09/16 05:04:01;;;;;;;15.70;14.30;;;16.50;69.90;;;;;;5036102;28;20041;-81
2022/09/16 05:06:32;;;;;;;17.05;15.70;;;16.40;69.90;;;;;;5039019;28;20045;-81
2022/09/16 05:08:59;;;;;;;14.95;13.70;;;16.30;70.20;;;;;;5056714;28;20029;-81
2022/09/16 05:11:31;;;;;;;24.60;23.13;;;16.30;70.80;;;;;;5056555;28;20048;-81
2022/09/16 05:13:57;;;;;;;;;;;16.30;71.30;;;;;;5057034;28;20025;-81
2022/09/16 05:16:23;;;;;;;23.27;21.35;;;16.30;70.20;;;;;;5055985;28;19912;-81
2022/09/16 05:18:50;;;;;;;25.00;22.75;;;16.30;70.30;;;;;;5074119;28;20051;-81
2022/09/16 05:21:18;;;;;;;20.52;19.15;;;16.30;70.50;;;;;;5053935;28;20473;-81
2022/09/16 05:23:44;;;;;;;21.23;19.23;;;16.20;70.30;;;;;;5056221;28;20027;-81
2022/09/16 05:26:18;;;;;;;20.23;18.30;;;16.20;70.50;;;;;;5056682;28;20036;-81
2022/09/16 05:28:45;;;;;;;19.35;18.08;;;16.10;70.70;;;;;;5042405;28;20036;-81
2022/09/16 05:31:14;;;;;;;20.33;18.70;;;16.00;70.90;;;;;;5035860;28;20037;-81
2022/09/16 05:33:41;;;;;;;21.52;19.33;;;16.00;70.90;;;;;;5052808;28;20024;-81
2022/09/16 05:36:14;;;;;;;23.40;21.95;;;16.00;70.90;;;;;;5035866;28;20036;-81
2022/09/16 05:38:40;;;;;;;21.42;19.77;;;16.00;70.80;;;;;;5036079;28;20029;-81
2022/09/16 05:41:06;;;;;;;22.25;20.67;;;15.90;70.90;;;;;;5046387;28;20040;-81
2022/09/16 05:43:32;;;;;;;22.50;20.55;;;16.00;71.00;;;;;;5055814;28;20061;-81
2022/09/16 05:45:59;;;;;;;23.83;21.70;;;16.00;71.00;;;;;;5038635;28;20032;-81
2022/09/16 05:48:25;;;;;;;26.33;24.23;;;15.90;71.10;;;;;;5038859;28;20044;-81
2022/09/16 05:50:55;;;;;;;24.98;22.92;;;16.00;71.10;;;;;;5038205;28;20051;-82
2022/09/16 05:53:22;;;;;;;23.58;21.83;;;16.00;71.00;;;;;;5039063;28;20049;-82
2022/09/16 05:55:57;;;;;;;26.35;24.67;;;16.00;71.20;;;;;;5055588;28;20044;-82
2022/09/16 05:58:24;;;;;;;28.88;26.88;;;16.00;71.50;;;;;;5055466;28;20036;-81
2022/09/16 06:00:50;;;;;;;30.35;28.13;;;16.00;71.80;;;;;;5038485;28;20035;-81
2022/09/16 06:03:17;;;;;;;27.90;25.65;;;16.00;71.80;;;;;;5073505;28;20028;-81
2022/09/16 06:05:43;;;;;;;28.33;26.40;;;16.00;71.40;;;;;;5055120;28;20481;-81
2022/09/16 06:08:09;;;;;;;30.52;28.17;;;16.00;71.60;;;;;;5038541;28;20041;-82
2022/09/16 06:10:39;;;;;;;31.25;28.95;;;16.00;71.50;;;;;;5038354;28;20059;-82
2022/09/16 06:13:05;;;;;;;30.30;28.23;;;16.10;71.90;;;;;;5055434;28;20388;-81
2022/09/16 06:15:31;;;;;;;29.83;27.92;;;16.10;71.70;;;;;;5037540;28;20032;-82
2022/09/16 06:17:57;;;;;;;30.98;28.77;;;16.10;71.90;;;;;;5053872;28;20031;-81
2022/09/16 06:20:23;;;;;;;29.52;27.42;;;16.10;72.00;;;;;;5037800;28;20560;-81
2022/09/16 06:22:49;;;;;;;29.40;27.25;;;16.10;72.10;;;;;;5073070;28;20032;-82
2022/09/16 06:25:16;;;;;;;29.88;27.95;;;16.10;72.20;;;;;;5073335;28;20025;-82
2022/09/16 06:27:42;;;;;;;27.63;25.83;;;16.10;72.30;;;;;;5067506;28;20421;-81
2022/09/16 06:30:08;;;;;;;27.42;25.23;;;16.20;72.20;;;;;;5067045;28;20040;-81
2022/09/16 06:32:34;;;;;;;27.20;25.20;;;16.30;72.10;;;;;;5066755;28;20032;-82
2022/09/16 06:35:00;;;;;;;27.00;25.13;;;16.30;72.10;;;;;;5051492;28;20029;-82
2022/09/16 06:37:26;;;;;;;27.55;25.73;;;16.30;72.10;;;;;;5068377;28;20036;-82
2022/09/16 06:39:52;;;;;;;27.80;25.77;;;16.40;72.20;;;;;;5068369;28;20044;-81
2022/09/16 06:42:19;;;;;;;27.38;25.67;;;16.40;72.30;;;;;;5072705;28;20036;-81
2022/09/16 06:44:45;;;;;;;27.58;25.90;;;16.40;72.20;;;;;;5053739;28;20185;-82
2022/09/16 06:47:11;;;;;;;28.75;26.83;;;16.40;72.40;;;;;;5071501;28;20037;-82
2022/09/16 06:49:37;;;;;;;29.02;26.85;;;16.50;72.60;;;;;;5037643;28;20043;-81
2022/09/16 06:52:03;;;;;;;30.17;28.05;;;16.50;72.60;;;;;;5037787;28;20044;-82
2022/09/16 06:54:29;;;;;;;32.70;30.80;;;16.50;73.00;;;;;;5054584;28;20051;-82
2022/09/16 06:56:56;;;;;;;31.90;29.85;;;16.60;73.00;;;;;;5038070;28;20041;-82
2022/09/16 06:59:22;;;;;;;33.60;31.33;;;16.70;72.80;;;;;;5072721;28;20047;-82
2022/09/16 07:01:48;;;;;;;36.35;34.05;;;16.70;72.90;;;;;;5071693;28;20029;-82
2022/09/16 07:04:14;;;;;;;22.17;20.20;;;16.80;73.00;;;;;;5054481;28;20460;-81
2022/09/16 07:06:40;;;;;;;21.73;19.77;;;16.80;72.40;;;;;;5053798;28;20440;-82
2022/09/16 07:09:07;;;;;;;21.33;19.42;;;16.90;72.40;;;;;;5053452;28;20437;-81
2022/09/16 07:11:33;;;;;;;22.17;20.45;;;16.90;70.70;;;;;;5054349;28;20381;-82
2022/09/16 07:13:59;;;;;;;21.05;19.60;;;16.80;70.30;;;;;;5037962;28;20043;-82
2022/09/16 07:16:25;;;;;;;21.35;19.48;;;16.80;70.50;;;;;;5071377;28;20032;-82
2022/09/16 07:18:53;;;;;;;21.83;20.23;;;16.80;70.30;;;;;;5037781;28;20025;-82
2022/09/16 07:21:20;;;;;;;20.77;18.80;;;16.80;70.10;;;;;;5037469;28;20028;-82
2022/09/16 07:23:47;;;;;;;25.60;23.90;;;16.80;71.10;;;;;;5020572;28;20040;-82
2022/09/16 07:26:16;;;;;;;26.13;24.10;;;16.90;70.10;;;;;;5037727;28;20377;-82
2022/09/16 07:28:45;;;;;;;26.30;24.42;;;16.90;70.40;;;;;;5053114;28;20036;-82
2022/09/16 07:31:13;;;;;;;27.10;25.35;;;16.90;70.10;;;;;;5053349;28;20043;-82
2022/09/16 07:33:41;;;;;;;27.58;25.35;;;16.90;70.20;;;;;;5052871;28;20024;-81
2022/09/16 07:36:08;;;;;;;26.48;24.48;;;16.80;70.40;;;;;;5054144;28;20023;-82
2022/09/16 07:38:34;;;;;;;28.58;26.63;;;16.80;71.00;;;;;;5053732;28;20024;-82
2022/09/16 07:41:12;;;;;;;27.67;26.00;;;16.80;71.10;;;;;;5043806;28;20431;-82
2022/09/16 07:43:39;;;;;;;26.88;24.88;;;16.90;70.90;;;;;;5034295;28;20032;-81
2022/09/16 07:46:05;;;;;;;27.27;24.95;;;17.00;70.70;;;;;;5032751;28;20056;-78
2022/09/16 07:48:38;;;;;;;26.90;25.10;;;17.10;69.50;;;;;;5067778;28;20448;-79
2022/09/16 07:51:06;;;;;;;28.10;26.02;;;17.10;70.10;;;;;;5050070;28;20025;-79
2022/09/16 07:53:33;;;;;;;29.95;27.90;;;17.10;70.00;;;;;;5050080;28;20397;-79
2022/09/16 07:56:22;;;;;;;28.15;26.25;;;17.10;69.60;;;;;;5068125;28;20353;-79
2022/09/16 07:58:48;;;;;;;27.63;25.73;;;17.00;69.90;;;;;;5066838;28;20389;-79
2022/09/16 08:01:15;;;;;;;29.08;27.08;;;17.00;70.10;;;;;;5057037;28;20511;-79
2022/09/16 08:03:42;;;;;;;26.63;24.30;;;17.00;69.90;;;;;;5030158;28;20033;-79
2022/09/16 08:06:22;;;;;;;26.77;24.83;;;17.00;70.00;;;;;;5046666;28;20029;-79
2022/09/16 08:08:50;;;;;;;29.70;27.70;;;16.90;70.20;;;;;;5046464;28;20067;-79
2022/09/16 08:11:16;;;;;;;28.85;26.85;;;16.90;70.30;;;;;;5029944;28;20040;-79
2022/09/16 08:13:43;;;;;;;28.48;26.58;;;16.80;70.40;;;;;;5029180;28;20398;-79
2022/09/16 08:16:17;;;;;;;28.92;27.13;;;16.80;70.70;;;;;;5045599;28;20041;-79
2022/09/16 08:18:43;;;;;;;26.05;24.17;;;16.80;70.70;;;;;;5013644;28;20041;-79
2022/09/16 08:21:15;;;;;;;25.95;24.25;;;16.80;71.00;;;;;;5029932;28;20049;-79
2022/09/16 08:23:41;;;;;;;24.92;23.13;;;16.80;71.00;;;;;;5013390;28;20049;-78
2022/09/16 08:26:08;;;;;;;26.33;24.35;;;16.80;70.70;;;;;;5046112;28;20033;-79
2022/09/16 08:28:34;;;;;;;27.52;25.33;;;16.80;70.30;;;;;;5029152;28;20513;-79
2022/09/16 08:31:01;;;;;;;27.08;25.08;;;16.90;70.80;;;;;;5029029;28;20513;-79
2022/09/16 08:33:27;;;;;;;27.23;25.52;;;16.90;70.30;;;;;;5013102;28;20052;-79
2022/09/16 08:36:25;;;;;;;25.88;24.10;;;16.90;70.20;;;;;;5029552;28;20041;-79
2022/09/16 08:38:54;;;;;;;27.90;25.85;;;17.00;70.30;;;;;;5042376;28;20324;-79
2022/09/16 08:41:54;;;;;;;29.85;27.92;;;17.20;69.80;;;;;;5033210;28;20041;-79
2022/09/16 08:44:23;;;;;;;28.63;26.60;;;17.20;68.90;;;;;;5034493;28;20462;-79
2022/09/16 08:46:52;;;;;;;29.98;28.02;;;17.20;69.30;;;;;;5056902;28;20061;-78
2022/09/16 08:49:36;;;;;;;29.88;27.77;;;17.30;69.00;;;;;;5046690;28;20037;-79
2022/09/16 08:52:13;;;;;;;30.63;28.65;;;17.40;68.70;;;;;;5046801;28;20391;-79
2022/09/16 08:54:44;;;;;;;22.05;20.55;;;17.80;68.10;;;;;;5045698;28;20029;-79
2022/09/16 08:57:18;;;;;;;21.30;19.80;;;18.00;64.90;;;;;;5029338;28;20045;-79
2022/09/16 08:59:47;;;;;;;21.88;20.20;;;18.20;64.50;;;;;;5016687;28;20410;-79
2022/09/16 09:02:41;;;;;;;23.85;22.15;;;18.40;64.00;;;;;;5014984;28;20497;-79
2022/09/16 09:05:29;;;;;;;24.10;22.67;;;18.60;63.50;;;;;;5033535;28;20025;-79
2022/09/16 09:08:02;;;;;;;25.40;23.80;;;18.90;61.20;;;;;;5033460;28;20049;-79
2022/09/16 09:10:33;;;;;;;20.50;19.30;;;19.10;58.70;;;;;;5033324;28;20033;-79
2022/09/16 09:13:03;;;;;;;19.58;18.05;;;19.10;58.90;;;;;;5030571;28;20497;-79
2022/09/16 09:15:37;;;;;;;20.85;19.35;;;19.30;57.10;;;;;;5031636;28;20029;-79
2022/09/16 09:18:15;;;;;;;17.23;16.15;;;19.40;57.00;;;;;;5015668;28;20030;-79
2022/09/16 09:21:12;;;;;;;17.83;16.77;;;19.60;54.00;;;;;;5032123;28;20048;-79
2022/09/16 09:23:52;;;;;;;19.23;17.92;;;19.70;52.10;;;;;;5033050;28;20025;-79
2022/09/16 09:26:48;;;;;;;21.50;20.13;;;19.80;50.70;;;;;;5015078;28;20037;-79
2022/09/16 09:29:30;;;;;;;25.05;23.70;;;19.90;49.60;;;;;;4993170;28;20057;-79
2022/09/16 09:32:08;;;;;;;22.95;21.63;;;20.00;49.60;;;;;;4991632;28;20042;-79
2022/09/16 09:34:51;;;;;;;24.75;23.25;;;20.00;48.40;;;;;;4992545;28;20044;-79
2022/09/16 09:37:26;;;;;;;25.58;24.20;;;20.10;47.20;;;;;;4976942;28;20038;-79
2022/09/16 09:40:29;;;;;;;25.52;24.02;;;20.30;46.50;;;;;;4993663;28;20030;-79
2022/09/16 09:43:08;;;;;;;26.55;24.98;;;20.40;46.40;;;;;;5011126;28;20034;-79
2022/09/16 09:45:58;;;;;;;25.40;23.27;;;20.40;46.30;;;;;;5011167;28;20395;-79
2022/09/16 09:48:37;;;;;;;24.02;22.48;;;20.30;46.70;;;;;;5007632;28;20053;-79
2022/09/16 09:51:30;;;;;;;26.67;25.02;;;20.20;47.10;;;;;;4995013;28;20029;-79
2022/09/16 09:54:01;;;;;;;24.85;23.48;;;20.00;47.00;;;;;;5011585;28;20033;-79
2022/09/16 09:56:32;;;;;;;25.77;24.38;;;20.00;47.40;;;;;;4994919;28;20045;-79
2022/09/16 09:59:01;;;;;;;24.83;23.52;;;19.90;46.50;;;;;;5011554;28;20033;-79
2022/09/16 10:01:27;;;;;;;24.17;22.88;;;19.80;46.70;;;;;;5009661;28;20044;-79
2022/09/16 10:03:54;;;;;;;23.00;21.70;;;19.70;47.30;;;;;;5011237;28;20049;-79
2022/09/16 10:06:26;;;;;;;23.95;22.40;;;19.70;47.50;;;;;;4994664;28;20454;-79
2022/09/16 10:08:53;;;;;;;22.10;20.73;;;19.60;47.80;;;;;;4994840;28;20061;-79
2022/09/16 10:11:22;;;;;;;20.60;19.50;;;19.40;48.60;;;;;;5009842;28;20026;-79
2022/09/16 10:13:50;;;;;;;21.35;20.08;;;19.30;49.10;;;;;;4994839;28;20049;-79
2022/09/16 10:16:19;;;;;;;20.02;18.90;;;19.30;49.90;;;;;;4994597;28;20026;-79
2022/09/16 10:19:03;;;;;;;20.60;19.25;;;19.20;50.40;;;;;;5011158;28;20037;-79
2022/09/16 10:21:46;;;;;;;21.10;20.00;;;19.30;50.50;;;;;;5011163;28;20057;-79
2022/09/16 10:24:29;;;;;;;21.98;20.55;;;19.50;50.20;;;;;;4995289;28;20038;-79
2022/09/16 10:26:57;;;;;;;23.67;22.10;;;19.80;49.60;;;;;;4993566;28;20045;-79
2022/09/16 10:29:23;;;;;;;23.98;22.58;;;20.10;48.90;;;;;;4994801;28;20403;-79
2022/09/16 10:31:49;;;;;;;24.10;22.70;;;20.20;47.30;;;;;;4994151;28;20423;-79
2022/09/16 10:34:18;;;;;;;26.02;24.60;;;20.40;47.80;;;;;;5010775;28;20034;-79
2022/09/16 10:36:44;;;;;;;24.60;23.23;;;20.50;47.00;;;;;;5012001;28;20430;-79
2022/09/16 10:39:22;;;;;;;22.95;21.75;;;20.60;44.50;;;;;;4994108;28;20037;-79
2022/09/16 10:41:48;;;;;;;23.88;22.55;;;20.60;45.00;;;;;;5010210;28;20033;-79
2022/09/16 10:44:30;;;;;;;25.00;23.70;;;20.40;45.70;;;;;;4994167;28;20428;-79
2022/09/16 10:47:08;;;;;;;24.55;22.80;;;20.30;46.30;;;;;;4978647;28;20395;-79
2022/09/16 10:49:39;;;;;;;23.05;21.60;;;20.40;46.30;;;;;;4994995;28;20057;-79
2022/09/16 10:52:20;;;;;;;23.05;21.75;;;20.20;47.30;;;;;;5009387;28;20471;-79
2022/09/16 10:54:46;;;;;;;24.33;23.02;;;20.10;47.30;;;;;;4993959;28;20046;-79
2022/09/16 10:57:29;;;;;;;25.40;24.13;;;20.00;47.30;;;;;;4994169;28;20040;-79
2022/09/16 11:00:21;;;;;;;25.55;23.92;;;20.10;45.90;;;;;;5010332;28;20485;-79
2022/09/16 11:03:05;;;;;;;25.45;24.15;;;20.20;45.40;;;;;;5009454;28;20033;-79
2022/09/16 11:06:06;;;;;;;25.88;24.40;;;20.40;44.60;;;;;;5010044;28;20050;-79
2022/09/16 11:08:57;;;;;;;25.95;24.65;;;20.50;44.10;;;;;;5009775;28;20048;-79
2022/09/16 11:11:32;;;;;;;24.80;23.60;;;20.70;44.50;;;;;;4993455;28;20037;-79
2022/09/16 11:14:21;;;;;;;26.73;25.17;;;20.90;44.10;;;;;;5010139;28;20037;-79
2022/09/16 11:17:13;;;;;;;26.55;24.70;;;20.90;43.80;;;;;;5023055;28;20045;-79
2022/09/16 11:19:46;;;;;;;23.80;22.40;;;20.70;44.70;;;;;;5030110;28;20029;-79
2022/09/16 11:22:50;;;;;;;24.13;22.92;;;20.40;45.00;;;;;;5029610;28;20489;-79
2022/09/16 11:25:47;;;;;;;24.88;23.58;;;20.20;45.90;;;;;;5008729;28;20617;-79
2022/09/16 11:28:31;;;;;;;24.92;23.63;;;20.10;46.40;;;;;;5008397;28;20375;-79
2022/09/16 11:31:25;;;;;;;23.90;22.70;;;20.40;46.50;;;;;;5008000;28;20034;-79
2022/09/16 11:34:32;;;;;;;22.55;21.33;;;20.40;45.50;;;;;;4978089;28;20045;-79
2022/09/16 11:37:37;;;;;;;24.83;23.42;;;20.20;46.10;;;;;;4949818;29;20039;-79
2022/09/16 11:40:21;;;;;;;23.98;22.50;;;20.00;47.00;;;;;;4947248;28;20043;-79
2022/09/16 11:43:13;;;;;;;23.52;22.23;;;20.00;47.20;;;;;;4949944;29;20035;-79
2022/09/16 11:45:42;;;;;;;21.83;20.55;;;20.10;47.40;;;;;;4929917;28;20740;-79
2022/09/16 11:48:18;;;;;;;22.08;20.70;;;20.00;47.70;;;;;;4931075;29;20052;-78
2022/09/16 11:50:58;;;;;;;23.33;22.13;;;20.10;47.90;;;;;;4946153;28;20051;-79
2022/09/16 11:54:01;;;;;;;24.13;22.73;;;20.10;47.10;;;;;;4929569;29;20028;-79
2022/09/16 11:56:43;;;;;;;23.85;22.58;;;20.00;46.90;;;;;;4962196;28;20047;-79
2022/09/16 11:59:20;;;;;;;21.98;20.80;;;20.00;47.40;;;;;;4937697;28;20400;-79
2022/09/16 12:01:52;;;;;;;22.02;20.83;;;19.90;47.50;;;;;;4966350;28;20042;-79
2022/09/16 12:04:34;;;;;;;21.05;19.95;;;20.00;47.80;;;;;;4957314;28;20038;-79
2022/09/16 12:07:14;;;;;;;24.05;22.55;;;20.00;47.60;;;;;;4955555;28;20562;-79
2022/09/16 12:10:20;;;;;;;22.98;21.48;;;20.00;47.00;;;;;;4973187;28;20526;-79
2022/09/16 12:12:51;;;;;;;22.98;21.77;;;20.00;47.50;;;;;;4984356;28;20045;-79
2022/09/16 12:15:20;;;;;;;21.80;20.67;;;20.00;47.90;;;;;;4975571;28;20043;-79
2022/09/16 12:17:53;;;;;;;21.20;19.83;;;19.80;48.00;;;;;;4975900;28;20061;-79
2022/09/16 12:20:56;;;;;;;20.35;19.00;;;19.60;48.80;;;;;;4975765;28;20042;-79
2022/09/16 12:23:25;;;;;;;21.33;20.02;;;19.70;49.10;;;;;;4936558;28;20050;-79
2022/09/16 12:26:14;;;;;;;20.70;19.50;;;19.60;48.40;;;;;;4952896;28;20031;-79
2022/09/16 12:29:02;;;;;;;20.73;19.35;;;19.50;48.70;;;;;;4920662;29;20557;-79
2022/09/16 12:31:40;;;;;;;22.02;20.63;;;19.50;48.90;;;;;;4908762;29;20031;-79
2022/09/16 12:34:18;;;;;;;23.83;22.35;;;19.60;48.60;;;;;;4966969;28;20038;-79
2022/09/16 12:36:47;;;;;;;23.52;22.20;;;19.70;48.00;;;;;;4968728;28;20039;-79
2022/09/16 12:39:14;;;;;;;24.15;22.90;;;19.60;47.70;;;;;;4969544;28;20035;-79
2022/09/16 12:42:09;;;;;;;23.20;21.88;;;19.70;47.60;;;;;;4983466;28;20042;-79
2022/09/16 12:45:01;;;;;;;23.13;21.92;;;19.70;47.50;;;;;;4933776;29;20054;-79
2022/09/16 12:47:47;;;;;;;23.55;22.27;;;19.80;47.50;;;;;;4927756;29;20064;-79
2022/09/16 12:51:01;;;;;;;24.05;22.55;;;19.90;47.20;;;;;;4933753;29;20043;-79
2022/09/16 12:53:40;;;;;;;22.73;21.50;;;19.90;47.50;;;;;;4933849;29;20063;-79
2022/09/16 12:56:51;;;;;;;23.08;21.67;;;19.90;47.20;;;;;;4917232;29;20036;-79
2022/09/16 12:59:37;;;;;;;24.60;23.20;;;20.10;47.40;;;;;;4864054;29;20071;-79